createdAt,value
2017-08-02T00:00:40.351Z,61.72
2017-08-02T00:01:41.069Z,61.91
2017-08-02T00:02:41.687Z,61.43
2017-08-02T00:03:42.310Z,61.24
2017-08-02T00:04:42.929Z,61.63
2017-08-02T00:05:43.546Z,61.05
2017-08-02T00:06:44.265Z,61.43
2017-08-02T00:07:44.884Z,61.34
2017-08-02T00:08:45.505Z,61.46
2017-08-02T00:09:46.121Z,60.96
2017-08-02T00:10:46.739Z,60.86
2017-08-02T00:11:47.456Z,60.99
2017-08-02T00:12:48.075Z,60.96
2017-08-02T00:13:48.693Z,61.05
2017-08-02T00:14:49.311Z,60.57
2017-08-02T00:15:49.930Z,60.76
2017-08-02T00:16:50.648Z,60.86
2017-08-02T00:17:51.265Z,60.28
2017-08-02T00:18:51.884Z,60.09
2017-08-02T00:19:52.502Z,60.50
2017-08-02T00:20:53.121Z,60.50
2017-08-02T00:21:53.844Z,60.22
2017-08-02T00:22:54.480Z,59.80
2017-08-02T00:23:55.097Z,59.71
2017-08-02T00:24:55.814Z,59.80
2017-08-02T00:25:56.531Z,59.80
2017-08-02T00:26:57.249Z,60.00
2017-08-02T00:27:57.966Z,59.90
2017-08-02T00:28:58.625Z,59.90
2017-08-02T00:29:59.376Z,59.71
2017-08-02T00:30:59.998Z,59.71
2017-08-02T00:32:00.611Z,60.09
2017-08-02T00:33:01.235Z,59.90
2017-08-02T00:34:01.850Z,59.80
2017-08-02T00:35:02.568Z,60.09
2017-08-02T00:36:03.184Z,60.00
2017-08-02T00:37:03.802Z,60.09
2017-08-02T00:38:04.419Z,59.90
2017-08-02T00:39:05.038Z,59.80
2017-08-02T00:40:05.761Z,59.90
2017-08-02T00:41:06.375Z,59.80
2017-08-02T00:42:06.991Z,60.00
2017-08-02T00:43:07.616Z,59.90
2017-08-02T00:44:08.231Z,60.28
2017-08-02T00:45:08.948Z,60.00
2017-08-02T00:46:09.572Z,59.80
2017-08-02T00:47:10.221Z,59.71
2017-08-02T00:48:10.839Z,59.80
2017-08-02T00:49:11.459Z,59.33
2017-08-02T00:50:12.175Z,59.23
2017-08-02T00:51:12.815Z,59.52
2017-08-02T00:52:13.410Z,59.61
2017-08-02T00:53:14.028Z,59.61
2017-08-02T00:54:14.748Z,59.80
2017-08-02T00:55:15.397Z,59.23
2017-08-02T00:56:16.049Z,59.80
2017-08-02T00:57:16.700Z,59.33
2017-08-02T00:58:17.317Z,59.23
2017-08-02T00:59:18.040Z,59.13
2017-08-02T01:00:18.657Z,59.42
2017-08-02T01:01:19.276Z,59.42
2017-08-02T01:02:19.927Z,58.94
2017-08-02T01:03:20.544Z,58.94
2017-08-02T01:04:21.262Z,59.33
2017-08-02T01:05:21.884Z,59.42
2017-08-02T01:06:22.500Z,59.33
2017-08-02T01:07:23.120Z,59.42
2017-08-02T01:08:23.737Z,59.04
2017-08-02T01:09:24.455Z,59.13
2017-08-02T01:10:25.073Z,59.13
2017-08-02T01:11:25.693Z,59.13
2017-08-02T01:12:26.344Z,59.23
2017-08-02T01:13:26.968Z,59.23
2017-08-02T01:14:27.688Z,59.52
2017-08-02T01:15:28.338Z,59.13
2017-08-02T01:16:28.953Z,59.42
2017-08-02T01:17:29.608Z,59.04
2017-08-02T01:18:30.224Z,59.52
2017-08-02T01:19:30.975Z,59.13
2017-08-02T01:20:31.591Z,58.84
2017-08-02T01:21:32.209Z,59.61
2017-08-02T01:22:32.862Z,59.52
2017-08-02T01:23:33.630Z,59.33
2017-08-02T01:24:34.249Z,59.42
2017-08-02T01:25:34.867Z,59.04
2017-08-02T01:26:35.516Z,59.13
2017-08-02T01:27:36.140Z,58.46
2017-08-02T01:28:36.990Z,58.94
2017-08-02T01:29:37.640Z,59.04
2017-08-02T01:30:38.260Z,58.46
2017-08-02T01:31:38.885Z,58.94
2017-08-02T01:32:39.503Z,58.65
2017-08-02T01:33:40.221Z,58.75
2017-08-02T01:34:40.838Z,59.04
2017-08-02T01:35:41.455Z,58.75
2017-08-02T01:36:42.078Z,59.04
2017-08-02T01:37:42.699Z,58.94
2017-08-02T01:38:43.414Z,59.13
2017-08-02T01:39:44.071Z,59.13
2017-08-02T01:40:44.687Z,58.94
2017-08-02T01:41:45.310Z,58.75
2017-08-02T01:42:45.958Z,59.04
2017-08-02T01:43:46.682Z,59.23
2017-08-02T01:44:47.299Z,59.13
2017-08-02T01:45:47.955Z,58.94
2017-08-02T01:46:48.572Z,58.94
2017-08-02T01:47:49.190Z,59.13
2017-08-02T01:48:49.913Z,58.46
2017-08-02T01:49:50.532Z,58.56
2017-08-02T01:50:51.149Z,58.65
2017-08-02T01:51:51.765Z,58.37
2017-08-02T01:52:52.487Z,58.65
2017-08-02T01:53:53.103Z,58.56
2017-08-02T01:54:53.821Z,58.46
2017-08-02T01:55:54.540Z,58.08
2017-08-02T01:56:55.192Z,57.79
2017-08-02T01:57:56.011Z,57.98
2017-08-02T01:58:56.634Z,58.08
2017-08-02T01:59:57.250Z,57.89
2017-08-02T02:00:57.875Z,57.98
2017-08-02T02:01:58.488Z,58.27
2017-08-02T02:02:59.306Z,57.98
2017-08-02T02:03:59.924Z,57.70
2017-08-02T02:05:00.542Z,58.08
2017-08-02T02:06:01.159Z,58.46
2017-08-02T02:07:01.777Z,57.60
2017-08-02T02:08:02.543Z,57.70
2017-08-02T02:09:03.168Z,57.70
2017-08-02T02:10:03.782Z,57.70
2017-08-02T02:11:04.417Z,57.79
2017-08-02T02:12:05.033Z,57.79
2017-08-02T02:13:05.757Z,57.70
2017-08-02T02:14:06.372Z,57.41
2017-08-02T02:15:06.996Z,57.41
2017-08-02T02:16:07.650Z,57.60
2017-08-02T02:17:08.272Z,57.03
2017-08-02T02:18:08.993Z,57.31
2017-08-02T02:19:09.610Z,57.41
2017-08-02T02:20:10.234Z,57.60
2017-08-02T02:21:10.949Z,57.31
2017-08-02T02:22:11.668Z,57.41
2017-08-02T02:23:12.392Z,57.31
2017-08-02T02:24:13.142Z,57.21
2017-08-02T02:25:13.760Z,57.31
2017-08-02T02:26:14.380Z,57.60
2017-08-02T02:27:15.000Z,56.93
2017-08-02T02:28:15.721Z,57.03
2017-08-02T02:29:16.335Z,57.03
2017-08-02T02:30:17.058Z,57.12
2017-08-02T02:31:17.675Z,56.83
2017-08-02T02:32:18.433Z,56.93
2017-08-02T02:33:19.048Z,56.64
2017-08-02T02:34:19.663Z,56.93
2017-08-02T02:35:20.382Z,57.03
2017-08-02T02:36:21.006Z,56.83
2017-08-02T02:37:21.618Z,57.12
2017-08-02T02:38:22.244Z,56.45
2017-08-02T02:39:22.984Z,56.54
2017-08-02T02:40:23.607Z,56.54
2017-08-02T02:41:24.228Z,56.54
2017-08-02T02:42:24.875Z,56.26
2017-08-02T02:43:25.494Z,56.35
2017-08-02T02:44:26.212Z,56.45
2017-08-02T02:45:26.830Z,55.78
2017-08-02T02:46:27.447Z,55.97
2017-08-02T02:47:28.065Z,55.52
2017-08-02T02:48:28.688Z,55.58
2017-08-02T02:49:29.401Z,55.58
2017-08-02T02:50:30.124Z,55.58
2017-08-02T02:51:30.746Z,55.49
2017-08-02T02:52:31.380Z,55.68
2017-08-02T02:53:32.072Z,55.68
2017-08-02T02:54:32.700Z,55.78
2017-08-02T02:55:33.420Z,55.78
2017-08-02T02:56:34.043Z,55.78
2017-08-02T02:57:34.706Z,55.78
2017-08-02T02:58:35.401Z,55.40
2017-08-02T02:59:36.052Z,55.40
2017-08-02T03:00:36.830Z,55.58
2017-08-02T03:01:37.447Z,55.58
2017-08-02T03:02:38.067Z,55.40
2017-08-02T03:03:38.684Z,55.68
2017-08-02T03:04:39.305Z,55.58
2017-08-02T03:05:40.086Z,55.68
2017-08-02T03:06:40.703Z,55.49
2017-08-02T03:07:41.377Z,55.40
2017-08-02T03:08:42.001Z,55.58
2017-08-02T03:09:42.620Z,55.49
2017-08-02T03:10:43.575Z,55.30
2017-08-02T03:11:44.193Z,55.68
2017-08-02T03:12:44.813Z,55.58
2017-08-02T03:13:45.427Z,55.58
2017-08-02T03:14:46.083Z,55.49
2017-08-02T03:15:47.031Z,55.58
2017-08-02T03:16:47.655Z,55.68
2017-08-02T03:17:48.274Z,55.68
2017-08-02T03:18:48.897Z,55.87
2017-08-02T03:19:49.631Z,55.49
2017-08-02T03:20:50.352Z,55.49
2017-08-02T03:21:51.069Z,55.30
2017-08-02T03:22:51.786Z,55.21
2017-08-02T03:23:52.427Z,55.40
2017-08-02T03:24:53.043Z,55.49
2017-08-02T03:25:53.659Z,55.49
2017-08-02T03:26:54.278Z,55.49
2017-08-02T03:27:54.997Z,55.49
2017-08-02T03:28:55.626Z,55.58
2017-08-02T03:29:56.251Z,55.01
2017-08-02T03:30:56.871Z,55.01
2017-08-02T03:31:57.510Z,54.82
2017-08-02T03:32:58.225Z,54.72
2017-08-02T03:33:58.843Z,55.01
2017-08-02T03:34:59.781Z,54.63
2017-08-02T03:36:00.400Z,54.91
2017-08-02T03:37:01.018Z,54.91
2017-08-02T03:38:01.699Z,54.72
2017-08-02T03:39:02.323Z,54.91
2017-08-02T03:40:03.307Z,54.63
2017-08-02T03:41:03.926Z,54.53
2017-08-02T03:42:04.557Z,55.01
2017-08-02T03:43:05.175Z,55.01
2017-08-02T03:44:05.791Z,54.72
2017-08-02T03:45:06.541Z,55.01
2017-08-02T03:46:07.160Z,55.01
2017-08-02T03:47:07.778Z,54.82
2017-08-02T03:48:08.496Z,54.82
2017-08-02T03:49:09.450Z,54.63
2017-08-02T03:50:10.422Z,54.82
2017-08-02T03:51:11.040Z,54.34
2017-08-02T03:52:11.655Z,54.44
2017-08-02T03:53:12.274Z,54.24
2017-08-02T03:54:12.897Z,54.15
2017-08-02T03:55:13.611Z,54.53
2017-08-02T03:56:14.233Z,54.34
2017-08-02T03:57:14.848Z,54.34
2017-08-02T03:58:15.463Z,54.05
2017-08-02T03:59:16.121Z,54.15
2017-08-02T04:00:16.833Z,54.15
2017-08-02T04:01:17.458Z,54.24
2017-08-02T04:02:18.072Z,53.96
2017-08-02T04:03:18.688Z,54.24
2017-08-02T04:04:19.305Z,54.15
2017-08-02T04:05:20.023Z,54.44
2017-08-02T04:06:20.639Z,53.96
2017-08-02T04:07:21.261Z,53.77
2017-08-02T04:08:21.876Z,53.77
2017-08-02T04:09:22.494Z,54.44
2017-08-02T04:10:23.211Z,53.86
2017-08-02T04:11:23.838Z,53.86
2017-08-02T04:12:24.456Z,54.53
2017-08-02T04:13:25.065Z,54.22
2017-08-02T04:14:25.688Z,54.15
2017-08-02T04:15:26.402Z,54.05
2017-08-02T04:16:27.026Z,54.34
2017-08-02T04:17:27.742Z,54.24
2017-08-02T04:18:28.460Z,54.05
2017-08-02T04:19:29.080Z,54.05
2017-08-02T04:20:29.701Z,54.03
2017-08-02T04:21:30.313Z,54.05
2017-08-02T04:22:30.940Z,54.05
2017-08-02T04:23:31.696Z,53.96
2017-08-02T04:24:32.306Z,54.05
2017-08-02T04:25:32.929Z,53.96
2017-08-02T04:26:33.549Z,54.05
2017-08-02T04:27:34.170Z,54.15
2017-08-02T04:28:34.888Z,54.15
2017-08-02T04:29:35.536Z,54.15
2017-08-02T04:30:36.155Z,54.24
2017-08-02T04:31:36.781Z,53.58
2017-08-02T04:32:37.434Z,53.86
2017-08-02T04:33:38.154Z,53.48
2017-08-02T04:34:38.770Z,53.09
2017-08-02T04:35:39.389Z,53.67
2017-08-02T04:36:40.006Z,53.00
2017-08-02T04:37:40.624Z,52.83
2017-08-02T04:38:41.344Z,53.00
2017-08-02T04:39:41.962Z,53.03
2017-08-02T04:40:42.587Z,53.09
2017-08-02T04:41:43.202Z,52.62
2017-08-02T04:42:43.827Z,53.00
2017-08-02T04:43:44.543Z,52.81
2017-08-02T04:44:45.159Z,53.09
2017-08-02T04:45:45.816Z,53.28
2017-08-02T04:46:46.535Z,52.91
2017-08-02T04:47:47.194Z,52.71
2017-08-02T04:48:47.811Z,52.81
2017-08-02T04:49:48.426Z,52.91
2017-08-02T04:50:49.046Z,52.71
2017-08-02T04:51:49.775Z,52.62
2017-08-02T04:52:50.387Z,52.81
2017-08-02T04:53:51.011Z,52.81
2017-08-02T04:54:51.662Z,52.71
2017-08-02T04:55:52.279Z,52.81
2017-08-02T04:56:53.000Z,52.91
2017-08-02T04:57:53.619Z,52.81
2017-08-02T04:58:54.236Z,53.00
2017-08-02T04:59:54.854Z,53.19
2017-08-02T05:00:55.473Z,53.00
2017-08-02T05:01:56.197Z,53.19
2017-08-02T05:02:56.850Z,53.09
2017-08-02T05:03:57.504Z,53.09
2017-08-02T05:04:58.160Z,52.81
2017-08-02T05:05:58.818Z,53.00
2017-08-02T05:06:59.532Z,53.09
2017-08-02T05:08:00.151Z,52.81
2017-08-02T05:09:00.767Z,52.71
2017-08-02T05:10:01.418Z,53.00
2017-08-02T05:11:02.036Z,52.91
2017-08-02T05:12:02.756Z,53.09
2017-08-02T05:13:03.376Z,52.52
2017-08-02T05:14:04.095Z,52.91
2017-08-02T05:15:04.811Z,52.71
2017-08-02T05:16:05.532Z,52.71
2017-08-02T05:17:06.249Z,52.62
2017-08-02T05:18:06.867Z,52.71
2017-08-02T05:19:07.486Z,52.52
2017-08-02T05:20:08.113Z,53.00
2017-08-02T05:21:08.827Z,52.71
2017-08-02T05:22:09.550Z,52.71
2017-08-02T05:23:10.207Z,52.81
2017-08-02T05:24:10.872Z,52.81
2017-08-02T05:25:11.493Z,52.71
2017-08-02T05:26:12.109Z,53.09
2017-08-02T05:27:12.828Z,52.81
2017-08-02T05:28:13.479Z,52.62
2017-08-02T05:29:14.206Z,52.42
2017-08-02T05:30:14.824Z,52.52
2017-08-02T05:31:15.539Z,52.52
2017-08-02T05:32:16.259Z,53.09
2017-08-02T05:33:16.883Z,53.00
2017-08-02T05:34:17.505Z,52.81
2017-08-02T05:35:18.222Z,52.81
2017-08-02T05:36:18.879Z,52.62
2017-08-02T05:37:19.497Z,52.62
2017-08-02T05:38:20.119Z,52.62
2017-08-02T05:39:20.734Z,52.62
2017-08-02T05:40:21.486Z,53.00
2017-08-02T05:41:22.206Z,53.00
2017-08-02T05:42:22.862Z,52.71
2017-08-02T05:43:23.483Z,53.09
2017-08-02T05:44:24.108Z,52.81
2017-08-02T05:45:24.733Z,52.97
2017-08-02T05:46:25.456Z,53.07
2017-08-02T05:47:26.073Z,53.07
2017-08-02T05:48:26.697Z,53.36
2017-08-02T05:49:27.320Z,53.36
2017-08-02T05:50:27.934Z,53.16
2017-08-02T05:51:28.648Z,53.45
2017-08-02T05:52:29.265Z,53.45
2017-08-02T05:53:29.884Z,53.16
2017-08-02T05:54:30.502Z,53.26
2017-08-02T05:55:31.119Z,53.07
2017-08-02T05:56:31.893Z,53.36
2017-08-02T05:57:32.514Z,53.07
2017-08-02T05:58:33.164Z,53.26
2017-08-02T05:59:33.782Z,53.64
2017-08-02T06:00:34.402Z,53.45
2017-08-02T06:01:35.179Z,53.74
2017-08-02T06:02:35.798Z,53.55
2017-08-02T06:03:36.418Z,53.45
2017-08-02T06:04:37.040Z,53.36
2017-08-02T06:05:37.696Z,53.48
2017-08-02T06:06:38.463Z,53.19
2017-08-02T06:07:39.088Z,53.48
2017-08-02T06:08:39.705Z,53.48
2017-08-02T06:09:40.324Z,53.58
2017-08-02T06:10:40.945Z,53.19
2017-08-02T06:11:41.566Z,53.28
2017-08-02T06:12:42.182Z,53.09
2017-08-02T06:13:42.800Z,53.48
2017-08-02T06:14:43.419Z,53.67
2017-08-02T06:15:44.036Z,53.77
2017-08-02T06:16:44.665Z,53.60
2017-08-02T06:17:45.294Z,53.79
2017-08-02T06:18:45.916Z,53.03
2017-08-02T06:19:46.568Z,53.03
2017-08-02T06:20:47.189Z,53.41
2017-08-02T06:21:47.809Z,53.31
2017-08-02T06:22:48.462Z,53.03
2017-08-02T06:23:49.081Z,53.22
2017-08-02T06:24:49.701Z,53.12
2017-08-02T06:25:50.374Z,53.22
2017-08-02T06:26:50.993Z,52.74
2017-08-02T06:27:51.621Z,53.31
2017-08-02T06:28:52.292Z,53.05
2017-08-02T06:29:52.915Z,53.15
2017-08-02T06:30:53.574Z,53.24
2017-08-02T06:31:54.200Z,53.05
2017-08-02T06:32:54.823Z,53.15
2017-08-02T06:33:55.697Z,53.15
2017-08-02T06:34:56.314Z,52.57
2017-08-02T06:35:56.965Z,52.67
2017-08-02T06:36:57.586Z,53.05
2017-08-02T06:37:58.211Z,52.76
2017-08-02T06:38:59.116Z,52.76
2017-08-02T06:39:59.739Z,53.15
2017-08-02T06:41:00.412Z,53.15
2017-08-02T06:42:01.027Z,53.15
2017-08-02T06:43:01.902Z,52.86
2017-08-02T06:44:02.518Z,52.95
2017-08-02T06:45:03.142Z,52.95
2017-08-02T06:46:03.797Z,52.86
2017-08-02T06:47:04.419Z,53.05
2017-08-02T06:48:05.346Z,52.86
2017-08-02T06:49:05.969Z,53.17
2017-08-02T06:50:06.589Z,52.89
2017-08-02T06:51:07.213Z,53.17
2017-08-02T06:52:07.832Z,53.08
2017-08-02T06:53:08.752Z,53.08
2017-08-02T06:54:09.375Z,53.27
2017-08-02T06:55:10.033Z,53.17
2017-08-02T06:56:10.953Z,53.46
2017-08-02T06:57:11.825Z,53.08
2017-08-02T06:58:12.447Z,52.60
2017-08-02T06:59:13.066Z,52.89
2017-08-02T07:00:13.695Z,52.40
2017-08-02T07:01:14.318Z,52.12
2017-08-02T07:02:15.190Z,52.53
2017-08-02T07:03:15.930Z,52.62
2017-08-02T07:04:16.789Z,52.62
2017-08-02T07:05:17.445Z,52.72
2017-08-02T07:06:18.065Z,52.53
2017-08-02T07:07:18.724Z,52.81
2017-08-02T07:08:19.648Z,52.43
2017-08-02T07:09:20.265Z,52.24
2017-08-02T07:10:20.889Z,52.05
2017-08-02T07:11:21.510Z,51.95
2017-08-02T07:12:22.138Z,51.67
2017-08-02T07:13:22.853Z,51.37
2017-08-02T07:14:23.477Z,51.76
2017-08-02T07:15:24.096Z,51.57
2017-08-02T07:16:24.739Z,51.67
2017-08-02T07:17:25.340Z,51.18
2017-08-02T07:18:26.068Z,51.28
2017-08-02T07:19:26.691Z,51.28
2017-08-02T07:20:27.315Z,51.76
2017-08-02T07:21:27.946Z,51.47
2017-08-02T07:22:28.596Z,50.99
2017-08-02T07:23:29.318Z,51.50
2017-08-02T07:24:29.941Z,50.99
2017-08-02T07:25:30.567Z,50.54
2017-08-02T07:26:31.187Z,50.70
2017-08-02T07:27:31.808Z,50.90
2017-08-02T07:28:32.570Z,50.92
2017-08-02T07:29:33.224Z,50.99
2017-08-02T07:30:33.950Z,51.09
2017-08-02T07:31:34.575Z,50.99
2017-08-02T07:32:35.194Z,50.70
2017-08-02T07:33:35.820Z,50.61
2017-08-02T07:34:36.443Z,50.63
2017-08-02T07:35:37.317Z,50.90
2017-08-02T07:36:37.936Z,50.73
2017-08-02T07:37:38.560Z,50.82
2017-08-02T07:38:39.180Z,50.63
2017-08-02T07:39:39.800Z,50.63
2017-08-02T07:40:40.527Z,50.63
2017-08-02T07:41:41.184Z,50.73
2017-08-02T07:42:41.805Z,50.34
2017-08-02T07:43:42.427Z,49.67
2017-08-02T07:44:43.081Z,49.67
2017-08-02T07:45:43.803Z,50.25
2017-08-02T07:46:44.424Z,50.05
2017-08-02T07:47:45.047Z,49.48
2017-08-02T07:48:45.673Z,49.48
2017-08-02T07:49:46.336Z,50.05
2017-08-02T07:50:47.061Z,49.99
2017-08-02T07:51:47.686Z,49.79
2017-08-02T07:52:48.307Z,49.79
2017-08-02T07:53:48.934Z,49.51
2017-08-02T07:54:49.585Z,49.41
2017-08-02T07:55:50.507Z,49.51
2017-08-02T07:56:51.135Z,48.64
2017-08-02T07:57:51.755Z,48.74
2017-08-02T07:58:52.378Z,49.51
2017-08-02T07:59:53.006Z,49.79
2017-08-02T08:00:53.924Z,49.82
2017-08-02T08:01:54.544Z,50.10
2017-08-02T08:02:55.168Z,49.33
2017-08-02T08:03:55.801Z,48.66
2017-08-02T08:04:56.420Z,48.95
2017-08-02T08:05:57.142Z,48.95
2017-08-02T08:06:57.800Z,48.28
2017-08-02T08:07:58.425Z,48.28
2017-08-02T08:08:59.044Z,48.38
2017-08-02T08:09:59.666Z,48.38
2017-08-02T08:11:00.390Z,48.38
2017-08-02T08:12:01.018Z,48.47
2017-08-02T08:13:01.670Z,48.28
2017-08-02T08:14:02.292Z,48.21
2017-08-02T08:15:02.916Z,48.02
2017-08-02T08:16:03.837Z,48.40
2017-08-02T08:17:04.465Z,48.30
2017-08-02T08:18:05.089Z,47.92
2017-08-02T08:19:05.712Z,48.49
2017-08-02T08:20:06.336Z,48.88
2017-08-02T08:21:07.060Z,48.88
2017-08-02T08:22:07.680Z,48.69
2017-08-02T08:23:08.303Z,48.69
2017-08-02T08:24:08.930Z,48.88
2017-08-02T08:25:09.549Z,49.07
2017-08-02T08:26:10.271Z,49.17
2017-08-02T08:27:10.893Z,48.97
2017-08-02T08:28:11.515Z,48.69
2017-08-02T08:29:12.137Z,49.17
2017-08-02T08:30:12.761Z,48.69
2017-08-02T08:31:13.636Z,48.97
2017-08-02T08:32:14.303Z,48.88
2017-08-02T08:33:14.956Z,48.79
2017-08-02T08:34:15.618Z,48.79
2017-08-02T08:35:16.243Z,48.97
2017-08-02T08:36:16.963Z,48.97
2017-08-02T08:37:17.592Z,48.69
2017-08-02T08:38:18.220Z,48.69
2017-08-02T08:39:18.842Z,48.88
2017-08-02T08:40:19.465Z,48.97
2017-08-02T08:41:20.184Z,48.11
2017-08-02T08:42:20.807Z,47.75
2017-08-02T08:43:21.468Z,46.77
2017-08-02T08:44:22.090Z,46.47
2017-08-02T08:45:22.736Z,47.05
2017-08-02T08:46:23.443Z,47.63
2017-08-02T08:47:24.062Z,48.59
2017-08-02T08:48:24.684Z,48.33
2017-08-02T08:49:25.308Z,48.23
2017-08-02T08:50:25.931Z,48.16
2017-08-02T08:51:26.659Z,48.16
2017-08-02T08:52:27.281Z,47.94
2017-08-02T08:53:27.912Z,47.67
2017-08-02T08:54:28.530Z,47.58
2017-08-02T08:55:29.152Z,47.87
2017-08-02T08:56:29.882Z,46.52
2017-08-02T08:57:30.502Z,46.14
2017-08-02T08:58:31.125Z,46.23
2017-08-02T08:59:31.750Z,45.36
2017-08-02T09:00:32.377Z,46.04
2017-08-02T09:01:33.103Z,46.42
2017-08-02T09:02:33.724Z,45.65
2017-08-02T09:03:34.381Z,46.23
2017-08-02T09:04:35.005Z,45.75
2017-08-02T09:05:35.632Z,46.23
2017-08-02T09:06:36.353Z,46.23
2017-08-02T09:07:36.976Z,45.56
2017-08-02T09:08:37.599Z,45.39
2017-08-02T09:09:38.223Z,45.56
2017-08-02T09:10:38.846Z,45.94
2017-08-02T09:11:39.568Z,45.20
2017-08-02T09:12:40.201Z,44.62
2017-08-02T09:13:40.820Z,45.10
2017-08-02T09:14:41.443Z,44.42
2017-08-02T09:15:42.068Z,44.62
2017-08-02T09:16:42.791Z,44.52
2017-08-02T09:17:43.420Z,44.04
2017-08-02T09:18:44.043Z,44.52
2017-08-02T09:19:44.699Z,44.62
2017-08-02T09:20:45.329Z,44.62
2017-08-02T09:21:46.049Z,44.90
2017-08-02T09:22:46.675Z,44.45
2017-08-02T09:23:47.300Z,43.07
2017-08-02T09:24:47.922Z,43.07
2017-08-02T09:25:48.547Z,43.27
2017-08-02T09:26:49.271Z,43.38
2017-08-02T09:27:49.936Z,43.29
2017-08-02T09:28:50.556Z,43.19
2017-08-02T09:29:51.178Z,42.71
2017-08-02T09:30:51.802Z,42.52
2017-08-02T09:31:52.527Z,42.61
2017-08-02T09:32:53.175Z,42.52
2017-08-02T09:33:53.779Z,42.90
2017-08-02T09:34:54.402Z,43.19
2017-08-02T09:35:55.026Z,43.29
2017-08-02T09:36:55.748Z,42.83
2017-08-02T09:37:56.373Z,42.54
2017-08-02T09:38:56.997Z,42.44
2017-08-02T09:39:57.622Z,42.54
2017-08-02T09:40:58.245Z,42.44
2017-08-02T09:41:58.974Z,42.36
2017-08-02T09:42:59.630Z,41.78
2017-08-02T09:44:00.259Z,41.88
2017-08-02T09:45:00.922Z,42.46
2017-08-02T09:46:01.577Z,42.58
2017-08-02T09:47:02.306Z,42.58
2017-08-02T09:48:02.928Z,42.48
2017-08-02T09:49:03.553Z,42.02
2017-08-02T09:50:04.177Z,41.63
2017-08-02T09:51:04.800Z,41.63
2017-08-02T09:52:05.717Z,41.63
2017-08-02T09:53:06.341Z,41.25
2017-08-02T09:54:06.967Z,41.15
2017-08-02T09:55:07.623Z,40.57
2017-08-02T09:56:08.253Z,40.67
2017-08-02T09:57:08.973Z,41.25
2017-08-02T09:58:09.597Z,40.96
2017-08-02T09:59:10.226Z,40.69
2017-08-02T10:00:10.851Z,40.40
2017-08-02T10:01:11.480Z,39.22
2017-08-02T10:02:12.203Z,38.64
2017-08-02T10:03:12.828Z,39.29
2017-08-02T10:04:13.454Z,39.59
2017-08-02T10:05:14.080Z,40.17
2017-08-02T10:06:14.705Z,40.94
2017-08-02T10:07:15.429Z,40.57
2017-08-02T10:08:16.056Z,39.90
2017-08-02T10:09:16.696Z,40.09
2017-08-02T10:10:17.309Z,40.38
2017-08-02T10:11:17.941Z,40.20
2017-08-02T10:12:18.663Z,40.20
2017-08-02T10:13:19.287Z,40.11
2017-08-02T10:14:19.919Z,40.40
2017-08-02T10:15:20.541Z,39.82
2017-08-02T10:16:21.165Z,37.98
2017-08-02T10:17:21.895Z,38.66
2017-08-02T10:18:22.522Z,39.14
2017-08-02T10:19:23.151Z,39.34
2017-08-02T10:20:23.775Z,39.04
2017-08-02T10:21:24.403Z,38.68
2017-08-02T10:22:25.131Z,39.14
2017-08-02T10:23:25.752Z,39.14
2017-08-02T10:24:26.376Z,38.58
2017-08-02T10:25:27.003Z,38.58
2017-08-02T10:26:27.628Z,37.50
2017-08-02T10:27:28.353Z,38.18
2017-08-02T10:28:28.984Z,38.56
2017-08-02T10:29:29.608Z,37.98
2017-08-02T10:30:30.231Z,38.08
2017-08-02T10:31:30.856Z,38.48
2017-08-02T10:32:31.582Z,38.58
2017-08-02T10:33:32.208Z,38.78
2017-08-02T10:34:32.833Z,38.02
2017-08-02T10:35:33.460Z,37.44
2017-08-02T10:36:34.086Z,37.05
2017-08-02T10:37:34.816Z,36.86
2017-08-02T10:38:35.439Z,37.52
2017-08-02T10:39:36.065Z,37.13
2017-08-02T10:40:36.690Z,36.84
2017-08-02T10:41:37.315Z,36.55
2017-08-02T10:42:38.046Z,36.74
2017-08-02T10:43:38.667Z,36.84
2017-08-02T10:44:39.298Z,37.23
2017-08-02T10:45:39.920Z,37.54
2017-08-02T10:46:40.547Z,37.34
2017-08-02T10:47:41.273Z,37.73
2017-08-02T10:48:41.899Z,37.75
2017-08-02T10:49:42.529Z,37.55
2017-08-02T10:50:43.161Z,36.88
2017-08-02T10:51:43.785Z,37.17
2017-08-02T10:52:44.515Z,37.07
2017-08-02T10:53:45.139Z,36.80
2017-08-02T10:54:45.765Z,36.41
2017-08-02T10:55:46.397Z,36.99
2017-08-02T10:56:47.029Z,36.90
2017-08-02T10:57:47.954Z,36.41
2017-08-02T10:58:48.580Z,36.90
2017-08-02T10:59:49.207Z,35.44
2017-08-02T11:00:49.834Z,35.15
2017-08-02T11:01:50.461Z,35.83
2017-08-02T11:02:51.188Z,35.25
2017-08-02T11:03:51.820Z,35.93
2017-08-02T11:04:52.486Z,35.05
2017-08-02T11:05:53.115Z,34.77
2017-08-02T11:06:53.738Z,35.05
2017-08-02T11:07:54.465Z,35.15
2017-08-02T11:08:55.092Z,35.35
2017-08-02T11:09:55.718Z,34.09
2017-08-02T11:10:56.344Z,33.99
2017-08-02T11:11:56.979Z,34.09
2017-08-02T11:12:57.702Z,34.77
2017-08-02T11:13:58.329Z,33.33
2017-08-02T11:14:58.957Z,33.42
2017-08-02T11:15:59.588Z,33.62
2017-08-02T11:17:00.212Z,33.52
2017-08-02T11:18:01.094Z,33.23
2017-08-02T11:19:01.720Z,33.04
2017-08-02T11:20:02.386Z,33.04
2017-08-02T11:21:03.019Z,33.52
2017-08-02T11:22:03.638Z,31.49
2017-08-02T11:23:04.566Z,31.87
2017-08-02T11:24:05.192Z,32.65
2017-08-02T11:25:05.825Z,32.56
2017-08-02T11:26:06.454Z,32.36
2017-08-02T11:27:07.078Z,31.87
2017-08-02T11:28:07.965Z,32.26
2017-08-02T11:29:08.587Z,32.46
2017-08-02T11:30:09.213Z,32.46
2017-08-02T11:31:09.844Z,32.56
2017-08-02T11:32:10.508Z,32.84
2017-08-02T11:33:11.237Z,32.18
2017-08-02T11:34:11.860Z,31.89
2017-08-02T11:35:12.494Z,30.82
2017-08-02T11:36:13.123Z,31.21
2017-08-02T11:37:13.748Z,31.60
2017-08-02T11:38:14.481Z,31.12
2017-08-02T11:39:15.210Z,31.12
2017-08-02T11:40:15.835Z,31.59
2017-08-02T11:41:16.463Z,31.41
2017-08-02T11:42:17.088Z,31.21
2017-08-02T11:43:17.720Z,31.31
2017-08-02T11:44:18.447Z,30.92
2017-08-02T11:45:19.073Z,29.66
2017-08-02T11:46:19.704Z,30.05
2017-08-02T11:47:20.336Z,30.13
2017-08-02T11:48:20.961Z,30.15
2017-08-02T11:49:21.689Z,29.95
2017-08-02T11:50:22.323Z,29.74
2017-08-02T11:51:22.948Z,30.42
2017-08-02T11:52:23.577Z,30.82
2017-08-02T11:53:24.205Z,30.44
2017-08-02T11:54:24.936Z,30.73
2017-08-02T11:55:25.561Z,29.95
2017-08-02T11:56:26.191Z,29.66
2017-08-02T11:57:26.819Z,29.47
2017-08-02T11:58:27.447Z,29.17
2017-08-02T11:59:28.173Z,29.66
2017-08-02T12:00:28.843Z,29.68
2017-08-02T12:01:29.504Z,28.80
2017-08-02T12:02:30.134Z,28.61
2017-08-02T12:03:30.764Z,28.79
2017-08-02T12:04:31.490Z,27.64
2017-08-02T12:05:32.117Z,27.24
2017-08-02T12:06:32.748Z,28.20
2017-08-02T12:07:33.383Z,28.98
2017-08-02T12:08:34.009Z,28.30
2017-08-02T12:09:34.735Z,28.20
2017-08-02T12:10:35.366Z,28.11
2017-08-02T12:11:35.996Z,28.30
2017-08-02T12:12:36.630Z,28.80
2017-08-02T12:13:37.292Z,29.01
2017-08-02T12:14:38.028Z,28.91
2017-08-02T12:15:38.654Z,26.97
2017-08-02T12:16:39.284Z,26.18
2017-08-02T12:17:39.917Z,27.06
2017-08-02T12:18:40.584Z,28.12
2017-08-02T12:19:41.308Z,27.54
2017-08-02T12:20:41.936Z,27.25
2017-08-02T12:21:42.565Z,27.45
2017-08-02T12:22:43.194Z,27.83
2017-08-02T12:23:43.821Z,27.54
2017-08-02T12:24:44.553Z,27.36
2017-08-02T12:25:45.180Z,27.46
2017-08-02T12:26:45.840Z,26.97
2017-08-02T12:27:46.473Z,27.36
2017-08-02T12:28:47.101Z,27.17
2017-08-02T12:29:47.828Z,26.87
2017-08-02T12:30:48.464Z,26.39
2017-08-02T12:31:49.091Z,26.20
2017-08-02T12:32:49.720Z,25.60
2017-08-02T12:33:50.355Z,26.38
2017-08-02T12:34:51.318Z,26.67
2017-08-02T12:35:51.948Z,26.29
2017-08-02T12:36:52.579Z,25.81
2017-08-02T12:37:53.208Z,25.62
2017-08-02T12:38:53.837Z,26.18
2017-08-02T12:39:54.776Z,26.29
2017-08-02T12:40:55.398Z,26.39
2017-08-02T12:41:56.026Z,26.59
2017-08-02T12:42:56.654Z,26.97
2017-08-02T12:43:57.290Z,26.79
2017-08-02T12:44:58.016Z,26.40
2017-08-02T12:45:58.646Z,25.92
2017-08-02T12:46:59.273Z,26.11
2017-08-02T12:47:59.908Z,25.73
2017-08-02T12:49:00.533Z,24.95
2017-08-02T12:50:01.444Z,25.34
2017-08-02T12:51:02.074Z,25.43
2017-08-02T12:52:02.702Z,25.53
2017-08-02T12:53:03.331Z,25.53
2017-08-02T12:54:03.994Z,25.84
2017-08-02T12:55:04.729Z,25.24
2017-08-02T12:56:05.355Z,24.85
2017-08-02T12:57:05.985Z,24.46
2017-08-02T12:58:06.619Z,25.04
2017-08-02T12:59:07.248Z,24.95
2017-08-02T13:00:07.980Z,25.34
2017-08-02T13:01:08.604Z,25.14